Главная страница
METAR-TAF:

METAR-TAF

Аэропорты :

Хартум, Судан

широта: 15-36N, долгота: 032-33E, высота над уровнем моря: 382 м

Текущие метеонаблюдения

Эта сводка был подготовлена 28 минут назад, в 11:30 UTC
Ветер 14 Узел от южный-юго-западный
Температура 36°C
Влажность 27%
Давление 1012 hPa
Видимость 10 км и более
Нет облачности ниже 1500 м, и нет кучево-дождевой облачности

METAR: HSSS 211130Z 21014KT CAVOK 36/14 Q1012 NOSIG

Время: 14:58 (11:58 UTC)

Прогноз

Эта сводка был подготовлена 58 минут назад, в 11:00 UTC
Прогноз действительный с 21-го 12 UTC до 22-го 18 UTC
Ветер 10 Узел от западный-юго-западный с порывами до 20 Узел
Видимость: 6000 м
Отдельные облака на высоте 14000 фута
Вероятность 30%
С 21-го 18 UTC до 21-го 21 UTC
Видимость: 3000 м
Низовая пыльная метель

TAF: HSSS 211100Z 2112/2218 24010G20KT 6000 SCT140 PROB30 2118/2121 3000 BLDU

Метеонаблюдения и прогнозы для более 4000 аэропортов (сводки METAR и TAF).

Имеющиеся станции представлены на карте желтыми и красными точками.

Чтобы увидеть название станции, наведите на нее мышь.

Затем щелкните, чтобы увидеть метеонаблюдения и метеопрогнозы.

Управление картой: чтобы увеличить масштаб, щелкните зеленые кнопки с черным крестиком; чтобы уменьшить масштаб, щелкните зеленую кнопку с тире; для просмотра соседних карт щелкайте зеленые стрелки.


METAR-TAF: